sensor_id;sensor_type;location;lat;lon;timestamp;temperature;humidity
3402;DHT22;1714;49.756;8.610;2022-08-05T00:05:07;26.10;19.70
3402;DHT22;1714;49.756;8.610;2022-08-05T00:15:29;26.10;19.10
3402;DHT22;1714;49.756;8.610;2022-08-05T00:25:52;26.10;19.10
3402;DHT22;1714;49.756;8.610;2022-08-05T00:35:55;25.90;24.20
3402;DHT22;1714;49.756;8.610;2022-08-05T00:46:20;25.90;25.70
3402;DHT22;1714;49.756;8.610;2022-08-05T00:56:41;25.90;26.40
3402;DHT22;1714;49.756;8.610;2022-08-05T01:06:49;25.90;26.10
3402;DHT22;1714;49.756;8.610;2022-08-05T01:37:53;25.90;26.90
3402;DHT22;1714;49.756;8.610;2022-08-05T01:47:59;25.80;24.80
3402;DHT22;1714;49.756;8.610;2022-08-05T01:58:17;25.80;27.80
3402;DHT22;1714;49.756;8.610;2022-08-05T02:08:41;25.70;28.20
3402;DHT22;1714;49.756;8.610;2022-08-05T02:29:14;25.70;22.60
3402;DHT22;1714;49.756;8.610;2022-08-05T02:39:24;25.60;24.50
3402;DHT22;1714;49.756;8.610;2022-08-05T02:49:36;25.60;27.30
3402;DHT22;1714;49.756;8.610;2022-08-05T02:59:41;25.60;30.50
3402;DHT22;1714;49.756;8.610;2022-08-05T03:10:02;25.50;28.80
3402;DHT22;1714;49.756;8.610;2022-08-05T03:20:05;25.50;28.80
3402;DHT22;1714;49.756;8.610;2022-08-05T03:30:08;25.30;30.30
3402;DHT22;1714;49.756;8.610;2022-08-05T03:40:11;25.30;32.40
3402;DHT22;1714;49.756;8.610;2022-08-05T03:50:51;25.00;28.80
3402;DHT22;1714;49.756;8.610;2022-08-05T04:01:19;25.00;44.50
3402;DHT22;1714;49.756;8.610;2022-08-05T04:11:23;24.30;44.80
3402;DHT22;1714;49.756;8.610;2022-08-05T04:21:46;24.20;49.90
3402;DHT22;1714;49.756;8.610;2022-08-05T04:32:09;24.00;56.70
3402;DHT22;1714;49.756;8.610;2022-08-05T04:42:14;24.10;64.60
3402;DHT22;1714;49.756;8.610;2022-08-05T04:52:24;23.80;67.10
3402;DHT22;1714;49.756;8.610;2022-08-05T05:02:27;23.80;72.50
3402;DHT22;1714;49.756;8.610;2022-08-05T05:12:37;23.70;73.00
3402;DHT22;1714;49.756;8.610;2022-08-05T05:22:39;23.60;71.70
3402;DHT22;1714;49.756;8.610;2022-08-05T05:32:42;23.70;71.30
3402;DHT22;1714;49.756;8.610;2022-08-05T05:42:47;23.40;71.50
3402;DHT22;1714;49.756;8.610;2022-08-05T05:52:49;23.90;69.00
3402;DHT22;1714;49.756;8.610;2022-08-05T06:02:51;23.50;67.20
3402;DHT22;1714;49.756;8.610;2022-08-05T06:12:53;24.00;61.00
3402;DHT22;1714;49.756;8.610;2022-08-05T06:22:55;24.00;54.70
3402;DHT22;1714;49.756;8.610;2022-08-05T06:33:03;24.30;47.20
3402;DHT22;1714;49.756;8.610;2022-08-05T06:43:09;24.50;52.20
3402;DHT22;1714;49.756;8.610;2022-08-05T06:53:31;24.40;52.40
3402;DHT22;1714;49.756;8.610;2022-08-05T07:03:38;24.80;48.30
3402;DHT22;1714;49.756;8.610;2022-08-05T07:13:40;25.10;36.80
3402;DHT22;1714;49.756;8.610;2022-08-05T07:24:00;24.90;33.90
3402;DHT22;1714;49.756;8.610;2022-08-05T07:34:10;24.60;45.80
3402;DHT22;1714;49.756;8.610;2022-08-05T07:44:20;24.60;47.10
3402;DHT22;1714;49.756;8.610;2022-08-05T07:54:25;23.60;59.00
3402;DHT22;1714;49.756;8.610;2022-08-05T08:04:32;23.30;61.10
3402;DHT22;1714;49.756;8.610;2022-08-05T08:14:36;23.20;61.60
3402;DHT22;1714;49.756;8.610;2022-08-05T08:24:39;23.40;76.30
3402;DHT22;1714;49.756;8.610;2022-08-05T08:34:50;23.70;78.20
3402;DHT22;1714;49.756;8.610;2022-08-05T08:44:57;23.60;82.30
3402;DHT22;1714;49.756;8.610;2022-08-05T08:55:21;23.80;63.10
3402;DHT22;1714;49.756;8.610;2022-08-05T09:05:44;23.50;65.90
3402;DHT22;1714;49.756;8.610;2022-08-05T09:16:13;23.70;63.80
3402;DHT22;1714;49.756;8.610;2022-08-05T09:26:16;23.80;66.30
3402;DHT22;1714;49.756;8.610;2022-08-05T09:36:22;24.30;50.10
3402;DHT22;1714;49.756;8.610;2022-08-05T09:46:33;25.20;44.30
3402;DHT22;1714;49.756;8.610;2022-08-05T09:56:50;26.10;37.20
3402;DHT22;1714;49.756;8.610;2022-08-05T10:06:57;26.50;32.30
3402;DHT22;1714;49.756;8.610;2022-08-05T10:17:19;27.10;26.00
3402;DHT22;1714;49.756;8.610;2022-08-05T10:27:38;27.50;21.40
3402;DHT22;1714;49.756;8.610;2022-08-05T10:38:02;27.60;19.10
3402;DHT22;1714;49.756;8.610;2022-08-05T10:48:39;28.20;19.90
3402;DHT22;1714;49.756;8.610;2022-08-05T10:59:01;28.20;21.90
3402;DHT22;1714;49.756;8.610;2022-08-05T11:09:25;27.60;20.10
3402;DHT22;1714;49.756;8.610;2022-08-05T11:19:45;27.90;19.40
3402;DHT22;1714;49.756;8.610;2022-08-05T11:30:09;27.20;21.40
3402;DHT22;1714;49.756;8.610;2022-08-05T11:40:11;27.40;20.10
3402;DHT22;1714;49.756;8.610;2022-08-05T11:50:18;27.90;21.80
3402;DHT22;1714;49.756;8.610;2022-08-05T12:00:28;28.70;19.20
3402;DHT22;1714;49.756;8.610;2022-08-05T12:10:39;28.70;17.60
3402;DHT22;1714;49.756;8.610;2022-08-05T12:20:46;28.70;16.20
3402;DHT22;1714;49.756;8.610;2022-08-05T12:30:49;28.70;16.00
3402;DHT22;1714;49.756;8.610;2022-08-05T12:41:00;28.80;15.80
3402;DHT22;1714;49.756;8.610;2022-08-05T12:51:13;29.10;15.90
3402;DHT22;1714;49.756;8.610;2022-08-05T13:12:12;29.30;15.80
3402;DHT22;1714;49.756;8.610;2022-08-05T13:22:14;28.70;17.40
3402;DHT22;1714;49.756;8.610;2022-08-05T13:32:28;29.90;15.00
3402;DHT22;1714;49.756;8.610;2022-08-05T13:42:41;29.10;15.50
3402;DHT22;1714;49.756;8.610;2022-08-05T13:52:44;29.10;16.90
3402;DHT22;1714;49.756;8.610;2022-08-05T14:02:48;29.40;17.80
3402;DHT22;1714;49.756;8.610;2022-08-05T14:12:53;29.50;17.20
3402;DHT22;1714;49.756;8.610;2022-08-05T14:22:56;29.30;16.40
3402;DHT22;1714;49.756;8.610;2022-08-05T14:33:00;29.00;18.00
3402;DHT22;1714;49.756;8.610;2022-08-05T14:43:05;28.70;19.00
3402;DHT22;1714;49.756;8.610;2022-08-05T14:53:09;28.20;18.70
3402;DHT22;1714;49.756;8.610;2022-08-05T15:03:12;28.30;19.70
3402;DHT22;1714;49.756;8.610;2022-08-05T15:13:14;27.60;23.40
3402;DHT22;1714;49.756;8.610;2022-08-05T15:23:16;27.80;23.10
3402;DHT22;1714;49.756;8.610;2022-08-05T15:33:18;27.80;22.20
3402;DHT22;1714;49.756;8.610;2022-08-05T15:43:40;27.70;20.40
3402;DHT22;1714;49.756;8.610;2022-08-05T15:53:45;26.70;20.00
3402;DHT22;1714;49.756;8.610;2022-08-05T16:03:50;26.60;23.40
3402;DHT22;1714;49.756;8.610;2022-08-05T16:13:51;26.00;21.80
3402;DHT22;1714;49.756;8.610;2022-08-05T16:23:54;25.80;22.30
3402;DHT22;1714;49.756;8.610;2022-08-05T16:34:02;25.20;23.80
3402;DHT22;1714;49.756;8.610;2022-08-05T16:44:14;25.10;25.80
3402;DHT22;1714;49.756;8.610;2022-08-05T16:54:19;24.80;26.20
3402;DHT22;1714;49.756;8.610;2022-08-05T17:04:32;24.70;26.70
3402;DHT22;1714;49.756;8.610;2022-08-05T17:14:39;24.50;26.80
3402;DHT22;1714;49.756;8.610;2022-08-05T17:24:43;24.60;26.00
3402;DHT22;1714;49.756;8.610;2022-08-05T17:34:57;24.40;23.70
3402;DHT22;1714;49.756;8.610;2022-08-05T17:44:59;24.20;25.00
3402;DHT22;1714;49.756;8.610;2022-08-05T17:55:21;24.10;23.70
3402;DHT22;1714;49.756;8.610;2022-08-05T18:05:37;24.00;24.50
3402;DHT22;1714;49.756;8.610;2022-08-05T18:15:53;24.10;25.20
3402;DHT22;1714;49.756;8.610;2022-08-05T18:25:59;24.10;24.10
3402;DHT22;1714;49.756;8.610;2022-08-05T18:36:03;24.00;23.90
3402;DHT22;1714;49.756;8.610;2022-08-05T18:46:14;23.90;25.50
3402;DHT22;1714;49.756;8.610;2022-08-05T18:56:19;23.80;24.80
3402;DHT22;1714;49.756;8.610;2022-08-05T19:06:24;23.70;25.20
3402;DHT22;1714;49.756;8.610;2022-08-05T19:16:42;23.50;25.60
3402;DHT22;1714;49.756;8.610;2022-08-05T19:26:48;23.30;27.00
3402;DHT22;1714;49.756;8.610;2022-08-05T19:36:56;23.20;27.70
3402;DHT22;1714;49.756;8.610;2022-08-05T19:46:58;23.00;27.90
3402;DHT22;1714;49.756;8.610;2022-08-05T19:57:03;22.90;29.40
3402;DHT22;1714;49.756;8.610;2022-08-05T20:07:08;22.90;27.90
3402;DHT22;1714;49.756;8.610;2022-08-05T20:17:11;22.60;27.80
3402;DHT22;1714;49.756;8.610;2022-08-05T20:27:14;22.50;28.30
3402;DHT22;1714;49.756;8.610;2022-08-05T20:37:19;22.30;27.70
3402;DHT22;1714;49.756;8.610;2022-08-05T20:47:42;22.20;25.70
3402;DHT22;1714;49.756;8.610;2022-08-05T20:57:44;22.00;25.90
3402;DHT22;1714;49.756;8.610;2022-08-05T21:07:47;21.90;25.90
3402;DHT22;1714;49.756;8.610;2022-08-05T21:17:50;21.80;25.00
3402;DHT22;1714;49.756;8.610;2022-08-05T21:27:52;21.70;24.10
3402;DHT22;1714;49.756;8.610;2022-08-05T21:37:55;21.50;24.80
3402;DHT22;1714;49.756;8.610;2022-08-05T21:47:58;21.30;23.90
3402;DHT22;1714;49.756;8.610;2022-08-05T21:58:06;21.20;24.00
3402;DHT22;1714;49.756;8.610;2022-08-05T22:08:09;21.10;24.50
3402;DHT22;1714;49.756;8.610;2022-08-05T22:18:23;20.90;24.30
3402;DHT22;1714;49.756;8.610;2022-08-05T22:28:27;20.90;24.30
3402;DHT22;1714;49.756;8.610;2022-08-05T22:38:29;20.90;23.70
3402;DHT22;1714;49.756;8.610;2022-08-05T22:48:32;20.80;25.00
3402;DHT22;1714;49.756;8.610;2022-08-05T22:58:36;20.60;25.00
3402;DHT22;1714;49.756;8.610;2022-08-05T23:08:43;20.50;26.20
3402;DHT22;1714;49.756;8.610;2022-08-05T23:18:51;20.30;26.70
3402;DHT22;1714;49.756;8.610;2022-08-05T23:28:53;20.20;26.80
3402;DHT22;1714;49.756;8.610;2022-08-05T23:38:56;20.10;26.80
3402;DHT22;1714;49.756;8.610;2022-08-05T23:48:59;20.00;27.70
3402;DHT22;1714;49.756;8.610;2022-08-05T23:59:16;19.90;28.40
